Terminal Aerodrome Forecast
Issued by NWS

Home | Current Version | Previous Version | Text Only | Print | Product List | Glossary On
Versions: 1 2 3 4 5 6 7 8 9 10 11 12 13 14 15 16 17 18 19 20 21 22 23 24 25 26 27 28 29
865
FTUS43 KDVN 200520
TAFCID
TAF
KCID 200520Z 2006/2106 14011KT P6SM SCT120 WS020/20035KT
     FM201300 18013G18KT P6SM BKN100
     FM201800 20013G18KT P6SM BKN090
     FM202100 23011KT P6SM VCTS BKN060CB
     FM202300 36009KT P6SM BKN050 PROB30 2023/2104 5SM -TSRA
      BKN040CB=

USA.gov is the U.S. government's official web portal to all federal, state and local government web resources and services.